Veghel, Netherlands
Current Conditions -  °F | °C
As of 6:25 PM on Thursday 27 Nov 2014 (Local Time) from EHVK Reporting Station
Drizzle Drizzle  
Wind Chill: 40°   Ceiling: 2400
Heat Index: 45°   Visibility: 4mi
Dew Point: 43°   Wind: 9mph
Humidity: 93%   Direction: 100°E
Pressure: 29.71"   Gusts: NA
Location:  51.62°N, 5.55°E
Report Text: EHVK 271725Z AUTO 10008KT 6000 -DZ FEW006 OVC024 07/06 Q1006 WHT 11010KT 8000 SCT020 BKN050 TEMPO 4000 -DZRA SCT007 BKN010
Loading
Personal Weather Stations






























Interactive Weather Map New forecast layout! Learn more

10-Day Weather Forecast

Advertisements
Track Severe Weather on mobile